Wednesday, August 24, 2016
19:48 UTC
  |  Log In   |  Register Free
Airport Search:

Ellington Airport
(KEFD)

FAA data valid effective Jul 21 2016 - Sep 15 2016 (unless otherwise noted).

 
 
 
 
 
 
 
 
 
 
 
 
 
 
Current Aviation Weather for KEFD

Weather Summary


The most recent METAR observation for EFD was updated at: 12:50 UTC
METAR for EFD is not available. Closest METAR is for
METAR

METAR KEFD 241850Z 08011KT 10SM VCSH BKN025 BKN250 33/25 A3011

METAR KEFD 241750Z 09008KT 10SM BKN025 BKN250 32/25 A3014

METAR KEFD 241650Z 00000KT 10SM BKN024 BKN250 32/25 A3015

METAR KAXH 241935Z 10007KT 10SM VCTS SCT044 SCT050 SCT065 31/26 A3010 RMK AO2 LTG DSNT NE T03070257

METAR KDWH 241853Z 24008KT 10SM FEW047 BKN065 33/23 A3010 RMK AO2 SLP191 T03330233

METAR KGLS 241852Z 15009KT 10SM SCT022 32/27 A3013 RMK AO2 SLP203 T03170267

TAF for EFD is not available.
TAF

KEFD - TAF KEFD 241200Z 2412/2518 VRB06KT 9999 FEW020 SCT250 QNH3008INS

KEFD - BECMG 2414/2415 16009KT 9999 SCT030 SCT250 QNH3004INS

KEFD - TEMPO 2420/2423 VCTS BKN030CB

KEFD - BECMG 2423/2424 16006KT 9999 FEW020 QNH3005INS TX34/2420Z TN25/2511Z =

KHOU - TAF AMD KHOU 241819Z 2418/2518 15009KT P6SM VCTS SCT040CB

KHOU - TEMPO 2418/2419 VRB10G20KT 5SM TSRA BR BKN030CB

KHOU - FM250100 14006KT P6SM SKC

KHOU - FM251000 VRB04KT P6SM FEW025 BKN250

KHOU - FM251600 14005KT P6SM VCSH SCT035 =

KIAH - TAF AMD KIAH 241927Z 2419/2524 15010KT P6SM VCTS SCT040CB

KIAH - TEMPO 2420/2421 VRB10G20KT 5SM TSRA BR BKN030CB

KIAH - FM250000 15005KT P6SM FEW040 SCT250

KIAH - FM251000 VRB04KT P6SM FEW025 BKN250

KIAH - FM251800 12006KT P6SM VCTS SCT035CB BKN250 =

KSGR - TAF KSGR 241731Z 2418/2518 15009KT P6SM VCTS SCT040CB

KSGR - FM250100 14004KT P6SM SKC

KSGR - FM251000 VRB04KT P6SM FEW025 BKN250

KSGR - FM251600 14005KT P6SM VCSH SCT035 =

KGLS - TAF KGLS 241731Z 2418/2518 17008KT P6SM SCT030

KGLS - FM242100 15010KT P6SM SKC

KGLS - FM251000 16006KT P6SM SCT025 BKN250

KGLS - FM251400 10007KT P6SM VCSH SCT035 =

KLBX - TAF KLBX 241731Z 2418/2518 17008KT P6SM VCSH SCT040

KLBX - FM242000 16009KT P6SM SCT025

KLBX - FM250000 14003KT P6SM SKC

KLBX - FM250900 VRB04KT P6SM FEW025 BKN250

KLBX - FM251500 13005KT P6SM VCSH SCT035 =

GlobalAir.com is loading additional information.
 Current Weather at EFD
90.0 F° (32.0 C°)

East winds at 9.2 mph
Pressure:
30.14 in
Humidity:
67%
Wind:
East at 9.2 mph
Dew Point:
77.0 F° (25.0 C°)
Visibility:
10.00 mi
EFD NOAA Radar




Find All Airport Services Find A Hotel Find A Rental Car Find A Golf Course Find A Restaurant $100 Hamburger



Airport Weather Forecast for KEFD

Translated METAR for KEFD (1850 UTC)
METAR:
KEFD 241850Z Ellington, Houston, TX (KEFD). Aug 24, 1850Z. Showers in the Vicinity, Wind from 080° at 11 knots, 10 statute miles visibility, Ceiling is Broken at 2,500 feet, Broken Clouds at 25,000 feet, Temperature 33°C, Dewpoint 25°C, Altimeter is 30.11.
Conditions at:
KEFD (Ellington, TX) observed 1850 UTC 24 August 2016
Temperature:
90.0 F° (32.0 C°)
Dewpoint:
not reported - refer to area weather report
Pressure:
30.14 Hg
Winds:
not reported
gusting to 0 mph (0 knots: 0 m/s)
Visibility:
10.00
Ceiling:
at least 12,000 feet AGL
Clouds:
not reported - refer to area weather report
Remarks:

Translated TAF for TAF for EFD is not available. Refer to local area forecast.
FBO's on the Field
FBO Company Facility Photos Services Transportation Aviation Fuel Prices: Prices include tax
Catering Weather Repair Courtesy Rental Type 100LL JetA JetA+ MOGAS 8087
 
Signature Flight Support - EFD

This FBO has not yet been rated
FS:Independent
Last Updated: Aug-23
Login to update fuel prices
SS:
Contact Signature Flight Support - EFDMore FBO Information
 
Add another FBO Facility Photos Catering Weather Repair Courtesy Rental Type 100LL JetA JetA+ MOGAS 8087
Services Transportation Aviation Fuel Prices: Prices include tax


model-print
model-print
model-print
model-print